Baltimore/Washington International Thurgood Marshal Airport
KBWI : now visible

Airfield :











YOU CAN JOIN US ON...

 
LOGIN :

Register | Disclaimer

   EN    FR    IT 

 









Legend :    VFR   Marginal VFR   IFR   Intensive IFR   Very Intensive IFR
Visi :
Ceiling :
>= 8 km
>= 3000ft
5 to 8 km
1000 to 3000 ft
1500m to 5 km
500 to 1000 ft
800 to 1500m
200 to 500 ft
< 800m
< 200 ft
Symbols :   Thunderstorms  Fog  Heavy snow  Heavy precipitations  Wind > 20 kt






- Airport Elevation : 146 ft
- IATA code : BWI


KBWI - Baltimore/Washington International Thurgood Marshal

CURRENT METAR :
  • 161218Z 00000KT 1 1/2SM -RASN BR BKN004 OVC010 01/M01 A3026 RMK AO2 DZE02RAB18SNB02PLB02E18 P0001 T00061006

EXPIRED METARs :
  • 161203Z 00000KT 1 1/2SM -SNPL BR SCT004 BKN010 OVC055 01/M01 A3026 RMK AO2 DZE02SNB02PLB02 P0000 T00061006
  • 161154Z 12003KT 2SM -DZ BR SCT006 BKN014 OVC055 01/M01 A3025 RMK AO2 DZB49SNE49 SLP246 P0005 60009 70009 T00061006 10033 20006 51014
  • 161121Z 00000KT 1/2SM R10/6000VP6000FT SN FG BKN004 OVC014 01/M01 A3025 RMK AO2 P0003 T00061006
  • 161054Z 08005KT 3/4SM R10/P6000FT -SN BR SCT007 OVC014 01/M01 A3024 RMK AO2 DZB11E24SNE11B24 SLP240 P0003 T00061011
  • 161031Z 09003KT 1 3/4SM -SN BR FEW007 OVC013 01/M01 A3024 RMK AO2 DZB11E24SNE11B24 P0001 T00111011
  • 161011Z 10004KT 4SM -DZ BR BKN007 OVC013 01/M01 A3024 RMK AO2 DZB11SNE11 P0001 T00111006
  • 160954Z 05003KT 3SM -SN BR SCT007 BKN021 OVC040 01/M01 A3023 RMK AO2 SLP236 P0000 T00111006
  • 160944Z 02003KT 3SM -SN BR SCT007 BKN021 OVC040 01/M01 A3022 RMK AO2 P0000 T00111006

TAF KBWI
Valid from the 16 at 12:00 until the 17 at 18:00 UTC


161137Z 1612/1718 08004KT 1/2SM SN OVC010
FM161400 09005KT 1 1/2SM -SNPL OVC008
FM161500 09005KT 3SM -RA OVC008
FM161700 08004KT 3SM -RA OVC003
FM170900 11004KT 2SM -RA OVC003
FM171500 23005KT 4SM -RA OVC003



MET'MAP, your aeronautical weather chart ! - Copyright ORBIFLY December 2007 - Disclaimer

ORBIFLY MET'MAP TEAM :

Programming & Development : Alexandra Zaïnal
Concept & original design : Baudouin d'Aumeries
Assistance for programming : Marc-Olivier Méhu
Technical & hardware support : Manuel Goepfert

Contact : metmap@orbifly.com




SOURCES & CREDITS :

   NOAA       Earth
Advisory